sensor_id;sensor_type;location;lat;lon;timestamp;temperature;humidity
70079;DHT22;57451;52.496;13.456;2023-07-16T00:00:56;24.30;65.30
70079;DHT22;57451;52.496;13.456;2023-07-16T00:03:24;24.30;64.80
70079;DHT22;57451;52.496;13.456;2023-07-16T00:05:54;24.30;65.00
70079;DHT22;57451;52.496;13.456;2023-07-16T00:08:22;24.30;64.90
70079;DHT22;57451;52.496;13.456;2023-07-16T00:10:50;24.30;64.50
70079;DHT22;57451;52.496;13.456;2023-07-16T00:13:18;24.20;64.90
70079;DHT22;57451;52.496;13.456;2023-07-16T00:15:46;24.20;64.50
70079;DHT22;57451;52.496;13.456;2023-07-16T00:18:13;24.20;63.50
70079;DHT22;57451;52.496;13.456;2023-07-16T00:20:40;24.20;63.90
70079;DHT22;57451;52.496;13.456;2023-07-16T00:23:08;24.10;63.10
70079;DHT22;57451;52.496;13.456;2023-07-16T00:25:35;24.20;63.60
70079;DHT22;57451;52.496;13.456;2023-07-16T00:28:03;24.10;63.50
70079;DHT22;57451;52.496;13.456;2023-07-16T00:30:32;24.10;64.30
70079;DHT22;57451;52.496;13.456;2023-07-16T00:33:11;24.10;63.90
70079;DHT22;57451;52.496;13.456;2023-07-16T00:35:39;24.10;63.20
70079;DHT22;57451;52.496;13.456;2023-07-16T00:38:10;24.10;64.80
70079;DHT22;57451;52.496;13.456;2023-07-16T00:40:37;24.10;65.00
70079;DHT22;57451;52.496;13.456;2023-07-16T00:43:04;24.10;64.80
70079;DHT22;57451;52.496;13.456;2023-07-16T00:45:33;24.00;66.00
70079;DHT22;57451;52.496;13.456;2023-07-16T00:48:01;24.00;66.70
70079;DHT22;57451;52.496;13.456;2023-07-16T00:50:29;24.00;66.30
70079;DHT22;57451;52.496;13.456;2023-07-16T00:53:01;24.00;65.40
70079;DHT22;57451;52.496;13.456;2023-07-16T00:55:29;24.00;66.00
70079;DHT22;57451;52.496;13.456;2023-07-16T00:58:03;24.00;65.50
70079;DHT22;57451;52.496;13.456;2023-07-16T01:00:34;24.00;65.20
70079;DHT22;57451;52.496;13.456;2023-07-16T01:03:03;24.00;64.10
70079;DHT22;57451;52.496;13.456;2023-07-16T01:05:35;24.00;64.80
70079;DHT22;57451;52.496;13.456;2023-07-16T01:08:06;24.00;65.70
70079;DHT22;57451;52.496;13.456;2023-07-16T01:10:36;23.90;65.70
70079;DHT22;57451;52.496;13.456;2023-07-16T01:13:04;23.90;66.30
70079;DHT22;57451;52.496;13.456;2023-07-16T01:15:33;23.90;65.90
70079;DHT22;57451;52.496;13.456;2023-07-16T01:18:00;23.90;65.90
70079;DHT22;57451;52.496;13.456;2023-07-16T01:20:28;23.80;66.50
70079;DHT22;57451;52.496;13.456;2023-07-16T01:23:12;23.70;67.40
70079;DHT22;57451;52.496;13.456;2023-07-16T01:26:02;23.50;68.50
70079;DHT22;57451;52.496;13.456;2023-07-16T01:29:05;23.40;68.70
70079;DHT22;57451;52.496;13.456;2023-07-16T01:31:34;23.40;68.60
70079;DHT22;57451;52.496;13.456;2023-07-16T01:34:02;23.40;67.70
70079;DHT22;57451;52.496;13.456;2023-07-16T01:36:33;23.40;67.80
70079;DHT22;57451;52.496;13.456;2023-07-16T01:39:02;23.30;67.40
70079;DHT22;57451;52.496;13.456;2023-07-16T01:41:29;23.30;67.60
70079;DHT22;57451;52.496;13.456;2023-07-16T01:43:56;23.30;67.70
70079;DHT22;57451;52.496;13.456;2023-07-16T01:46:25;23.30;67.70
70079;DHT22;57451;52.496;13.456;2023-07-16T01:48:53;23.20;67.70
70079;DHT22;57451;52.496;13.456;2023-07-16T01:51:21;23.20;66.90
70079;DHT22;57451;52.496;13.456;2023-07-16T01:53:49;23.20;67.20
70079;DHT22;57451;52.496;13.456;2023-07-16T01:56:16;23.20;67.00
70079;DHT22;57451;52.496;13.456;2023-07-16T01:58:47;23.20;66.60
70079;DHT22;57451;52.496;13.456;2023-07-16T02:01:15;23.20;66.60
70079;DHT22;57451;52.496;13.456;2023-07-16T02:03:43;23.20;66.40
70079;DHT22;57451;52.496;13.456;2023-07-16T02:06:11;23.20;66.30
70079;DHT22;57451;52.496;13.456;2023-07-16T02:08:38;23.30;66.00
70079;DHT22;57451;52.496;13.456;2023-07-16T02:11:05;23.30;66.00
70079;DHT22;57451;52.496;13.456;2023-07-16T02:13:33;23.30;65.60
70079;DHT22;57451;52.496;13.456;2023-07-16T02:16:00;23.30;66.00
70079;DHT22;57451;52.496;13.456;2023-07-16T02:18:27;23.30;65.20
70079;DHT22;57451;52.496;13.456;2023-07-16T02:20:56;23.30;65.10
70079;DHT22;57451;52.496;13.456;2023-07-16T02:23:23;23.30;65.40
70079;DHT22;57451;52.496;13.456;2023-07-16T02:25:53;23.30;65.00
70079;DHT22;57451;52.496;13.456;2023-07-16T02:28:20;23.30;66.10
70079;DHT22;57451;52.496;13.456;2023-07-16T02:30:48;23.30;66.40
70079;DHT22;57451;52.496;13.456;2023-07-16T02:33:15;23.20;67.30
70079;DHT22;57451;52.496;13.456;2023-07-16T02:35:46;23.10;67.80
70079;DHT22;57451;52.496;13.456;2023-07-16T02:38:16;23.20;67.90
70079;DHT22;57451;52.496;13.456;2023-07-16T02:40:44;23.20;67.80
70079;DHT22;57451;52.496;13.456;2023-07-16T02:43:12;23.20;68.20
70079;DHT22;57451;52.496;13.456;2023-07-16T02:45:39;23.20;67.50
70079;DHT22;57451;52.496;13.456;2023-07-16T02:48:07;23.20;67.50
70079;DHT22;57451;52.496;13.456;2023-07-16T02:50:35;23.20;67.20
70079;DHT22;57451;52.496;13.456;2023-07-16T02:53:03;23.20;66.60
70079;DHT22;57451;52.496;13.456;2023-07-16T02:55:32;23.20;67.30
70079;DHT22;57451;52.496;13.456;2023-07-16T02:57:59;23.20;67.50
70079;DHT22;57451;52.496;13.456;2023-07-16T03:00:29;23.20;67.70
70079;DHT22;57451;52.496;13.456;2023-07-16T03:02:57;23.20;67.90
70079;DHT22;57451;52.496;13.456;2023-07-16T03:05:27;23.10;67.70
70079;DHT22;57451;52.496;13.456;2023-07-16T03:07:56;23.10;68.60
70079;DHT22;57451;52.496;13.456;2023-07-16T03:10:24;23.00;68.10
70079;DHT22;57451;52.496;13.456;2023-07-16T03:12:55;23.00;69.10
70079;DHT22;57451;52.496;13.456;2023-07-16T03:15:22;23.00;68.80
70079;DHT22;57451;52.496;13.456;2023-07-16T03:17:49;23.00;69.00
70079;DHT22;57451;52.496;13.456;2023-07-16T03:20:17;22.90;69.30
70079;DHT22;57451;52.496;13.456;2023-07-16T03:22:44;22.90;69.00
70079;DHT22;57451;52.496;13.456;2023-07-16T03:25:12;22.90;69.10
70079;DHT22;57451;52.496;13.456;2023-07-16T03:27:40;22.90;69.20
70079;DHT22;57451;52.496;13.456;2023-07-16T03:30:10;22.80;69.10
70079;DHT22;57451;52.496;13.456;2023-07-16T03:32:37;22.80;69.50
70079;DHT22;57451;52.496;13.456;2023-07-16T03:35:19;22.70;69.90
70079;DHT22;57451;52.496;13.456;2023-07-16T03:37:50;22.70;69.70
70079;DHT22;57451;52.496;13.456;2023-07-16T03:40:22;22.70;70.30
70079;DHT22;57451;52.496;13.456;2023-07-16T03:42:50;22.60;70.00
70079;DHT22;57451;52.496;13.456;2023-07-16T03:45:19;22.60;70.10
70079;DHT22;57451;52.496;13.456;2023-07-16T03:47:46;22.60;70.40
70079;DHT22;57451;52.496;13.456;2023-07-16T03:50:14;22.60;69.40
70079;DHT22;57451;52.496;13.456;2023-07-16T03:52:41;22.50;70.10
70079;DHT22;57451;52.496;13.456;2023-07-16T03:55:09;22.50;69.70
70079;DHT22;57451;52.496;13.456;2023-07-16T03:57:36;22.50;69.10
70079;DHT22;57451;52.496;13.456;2023-07-16T04:00:05;22.50;70.00
70079;DHT22;57451;52.496;13.456;2023-07-16T04:02:42;22.50;69.50
70079;DHT22;57451;52.496;13.456;2023-07-16T04:05:16;22.40;70.30
70079;DHT22;57451;52.496;13.456;2023-07-16T04:07:43;22.40;69.90
70079;DHT22;57451;52.496;13.456;2023-07-16T04:10:10;22.40;70.40
70079;DHT22;57451;52.496;13.456;2023-07-16T04:12:38;22.30;70.30
70079;DHT22;57451;52.496;13.456;2023-07-16T04:15:08;22.30;70.30
70079;DHT22;57451;52.496;13.456;2023-07-16T04:17:38;22.30;70.20
70079;DHT22;57451;52.496;13.456;2023-07-16T04:20:08;22.30;69.70
70079;DHT22;57451;52.496;13.456;2023-07-16T04:22:35;22.30;70.00
70079;DHT22;57451;52.496;13.456;2023-07-16T04:25:03;22.30;69.30
70079;DHT22;57451;52.496;13.456;2023-07-16T04:27:31;22.30;70.10
70079;DHT22;57451;52.496;13.456;2023-07-16T04:29:58;22.30;69.90
70079;DHT22;57451;52.496;13.456;2023-07-16T04:32:26;22.30;70.60
70079;DHT22;57451;52.496;13.456;2023-07-16T04:34:53;22.30;71.00
70079;DHT22;57451;52.496;13.456;2023-07-16T04:37:22;22.30;70.90
70079;DHT22;57451;52.496;13.456;2023-07-16T04:39:49;22.30;71.10
70079;DHT22;57451;52.496;13.456;2023-07-16T04:42:16;22.30;70.80
70079;DHT22;57451;52.496;13.456;2023-07-16T04:44:44;22.30;71.40
70079;DHT22;57451;52.496;13.456;2023-07-16T04:47:11;22.20;70.90
70079;DHT22;57451;52.496;13.456;2023-07-16T04:49:39;22.20;71.30
70079;DHT22;57451;52.496;13.456;2023-07-16T04:52:06;22.20;70.90
70079;DHT22;57451;52.496;13.456;2023-07-16T04:54:38;22.20;70.70
70079;DHT22;57451;52.496;13.456;2023-07-16T04:57:07;22.20;71.10
70079;DHT22;57451;52.496;13.456;2023-07-16T04:59:34;22.20;71.00
70079;DHT22;57451;52.496;13.456;2023-07-16T05:02:04;22.20;71.50
70079;DHT22;57451;52.496;13.456;2023-07-16T05:04:32;22.10;71.50
70079;DHT22;57451;52.496;13.456;2023-07-16T05:07:00;22.10;71.40
70079;DHT22;57451;52.496;13.456;2023-07-16T05:09:27;22.20;71.10
70079;DHT22;57451;52.496;13.456;2023-07-16T05:11:56;22.20;71.60
70079;DHT22;57451;52.496;13.456;2023-07-16T05:14:26;22.10;72.00
70079;DHT22;57451;52.496;13.456;2023-07-16T05:16:54;22.10;72.30
70079;DHT22;57451;52.496;13.456;2023-07-16T05:19:22;22.10;72.20
70079;DHT22;57451;52.496;13.456;2023-07-16T05:21:49;22.10;72.10
70079;DHT22;57451;52.496;13.456;2023-07-16T05:24:16;22.00;72.40
70079;DHT22;57451;52.496;13.456;2023-07-16T05:26:44;22.00;72.60
70079;DHT22;57451;52.496;13.456;2023-07-16T05:29:12;22.10;72.20
70079;DHT22;57451;52.496;13.456;2023-07-16T05:31:40;22.10;72.70
70079;DHT22;57451;52.496;13.456;2023-07-16T05:34:07;22.20;72.00
70079;DHT22;57451;52.496;13.456;2023-07-16T05:36:34;22.20;71.90
70079;DHT22;57451;52.496;13.456;2023-07-16T05:39:02;22.20;72.10
70079;DHT22;57451;52.496;13.456;2023-07-16T05:41:29;22.30;72.50
70079;DHT22;57451;52.496;13.456;2023-07-16T05:43:56;22.30;72.20
70079;DHT22;57451;52.496;13.456;2023-07-16T05:46:25;22.30;71.80
70079;DHT22;57451;52.496;13.456;2023-07-16T05:48:52;22.30;71.40
70079;DHT22;57451;52.496;13.456;2023-07-16T05:51:19;22.30;71.50
70079;DHT22;57451;52.496;13.456;2023-07-16T05:53:47;22.40;71.90
70079;DHT22;57451;52.496;13.456;2023-07-16T05:56:14;22.40;71.70
70079;DHT22;57451;52.496;13.456;2023-07-16T05:58:42;22.40;71.60
70079;DHT22;57451;52.496;13.456;2023-07-16T06:01:09;22.50;71.10
70079;DHT22;57451;52.496;13.456;2023-07-16T06:03:38;22.60;71.00
70079;DHT22;57451;52.496;13.456;2023-07-16T06:06:05;22.60;71.20
70079;DHT22;57451;52.496;13.456;2023-07-16T06:08:35;22.70;71.20
70079;DHT22;57451;52.496;13.456;2023-07-16T06:11:02;22.70;71.30
70079;DHT22;57451;52.496;13.456;2023-07-16T06:13:31;22.70;70.60
70079;DHT22;57451;52.496;13.456;2023-07-16T06:15:58;22.80;70.30
70079;DHT22;57451;52.496;13.456;2023-07-16T06:18:25;22.90;70.50
70079;DHT22;57451;52.496;13.456;2023-07-16T06:20:54;22.90;70.40
70079;DHT22;57451;52.496;13.456;2023-07-16T06:23:22;23.00;70.30
70079;DHT22;57451;52.496;13.456;2023-07-16T06:25:54;23.10;70.00
70079;DHT22;57451;52.496;13.456;2023-07-16T06:28:21;23.10;69.50
70079;DHT22;57451;52.496;13.456;2023-07-16T06:30:49;23.10;69.40
70079;DHT22;57451;52.496;13.456;2023-07-16T06:33:16;23.20;69.20
70079;DHT22;57451;52.496;13.456;2023-07-16T06:35:44;23.30;69.10
70079;DHT22;57451;52.496;13.456;2023-07-16T06:38:14;23.30;69.20
70079;DHT22;57451;52.496;13.456;2023-07-16T06:40:46;23.40;69.20
70079;DHT22;57451;52.496;13.456;2023-07-16T06:43:14;23.40;68.80
70079;DHT22;57451;52.496;13.456;2023-07-16T06:45:42;23.50;68.70
70079;DHT22;57451;52.496;13.456;2023-07-16T06:48:09;23.60;68.10
70079;DHT22;57451;52.496;13.456;2023-07-16T06:50:36;23.60;68.20
70079;DHT22;57451;52.496;13.456;2023-07-16T06:53:04;23.70;68.20
70079;DHT22;57451;52.496;13.456;2023-07-16T06:55:32;23.70;67.80
70079;DHT22;57451;52.496;13.456;2023-07-16T06:58:00;23.80;67.40
70079;DHT22;57451;52.496;13.456;2023-07-16T07:00:27;23.90;66.90
70079;DHT22;57451;52.496;13.456;2023-07-16T07:02:55;23.90;67.60
70079;DHT22;57451;52.496;13.456;2023-07-16T07:05:23;24.00;66.80
70079;DHT22;57451;52.496;13.456;2023-07-16T07:07:50;24.10;66.90
70079;DHT22;57451;52.496;13.456;2023-07-16T07:10:17;24.20;66.70
70079;DHT22;57451;52.496;13.456;2023-07-16T07:12:46;24.20;65.60
70079;DHT22;57451;52.496;13.456;2023-07-16T07:15:13;24.30;65.60
70079;DHT22;57451;52.496;13.456;2023-07-16T07:17:40;24.40;65.10
70079;DHT22;57451;52.496;13.456;2023-07-16T07:20:11;24.40;64.70
70079;DHT22;57451;52.496;13.456;2023-07-16T07:22:38;24.40;64.60
70079;DHT22;57451;52.496;13.456;2023-07-16T07:25:06;24.50;64.40
70079;DHT22;57451;52.496;13.456;2023-07-16T07:27:33;24.60;64.80
70079;DHT22;57451;52.496;13.456;2023-07-16T07:30:02;24.70;64.40
70079;DHT22;57451;52.496;13.456;2023-07-16T07:32:30;24.70;63.30
70079;DHT22;57451;52.496;13.456;2023-07-16T07:34:57;24.70;63.00
70079;DHT22;57451;52.496;13.456;2023-07-16T07:37:26;24.70;63.00
70079;DHT22;57451;52.496;13.456;2023-07-16T07:39:53;24.70;62.90
70079;DHT22;57451;52.496;13.456;2023-07-16T07:42:20;24.70;62.50
70079;DHT22;57451;52.496;13.456;2023-07-16T07:44:51;24.80;62.50
70079;DHT22;57451;52.496;13.456;2023-07-16T07:47:20;24.80;63.10
70079;DHT22;57451;52.496;13.456;2023-07-16T07:49:47;24.90;62.70
70079;DHT22;57451;52.496;13.456;2023-07-16T07:52:15;24.90;62.90
70079;DHT22;57451;52.496;13.456;2023-07-16T07:54:42;25.00;62.50
70079;DHT22;57451;52.496;13.456;2023-07-16T07:57:09;25.10;61.80
70079;DHT22;57451;52.496;13.456;2023-07-16T07:59:36;25.10;62.10
70079;DHT22;57451;52.496;13.456;2023-07-16T08:02:05;25.20;61.90
70079;DHT22;57451;52.496;13.456;2023-07-16T08:04:34;25.20;60.40
70079;DHT22;57451;52.496;13.456;2023-07-16T08:07:02;25.20;59.80
70079;DHT22;57451;52.496;13.456;2023-07-16T08:09:30;25.10;59.40
70079;DHT22;57451;52.496;13.456;2023-07-16T08:11:58;25.10;59.00
70079;DHT22;57451;52.496;13.456;2023-07-16T08:14:25;25.10;59.50
70079;DHT22;57451;52.496;13.456;2023-07-16T08:16:53;25.10;59.60
70079;DHT22;57451;52.496;13.456;2023-07-16T08:19:24;25.20;60.20
70079;DHT22;57451;52.496;13.456;2023-07-16T08:21:53;25.30;60.10
70079;DHT22;57451;52.496;13.456;2023-07-16T08:24:21;25.30;60.40
70079;DHT22;57451;52.496;13.456;2023-07-16T08:26:48;25.40;60.20
70079;DHT22;57451;52.496;13.456;2023-07-16T08:29:15;25.30;58.30
70079;DHT22;57451;52.496;13.456;2023-07-16T08:31:43;25.30;56.50
70079;DHT22;57451;52.496;13.456;2023-07-16T08:34:10;25.20;55.80
70079;DHT22;57451;52.496;13.456;2023-07-16T08:36:37;25.20;56.90
70079;DHT22;57451;52.496;13.456;2023-07-16T08:39:06;25.10;55.30
70079;DHT22;57451;52.496;13.456;2023-07-16T08:41:34;25.10;55.90
70079;DHT22;57451;52.496;13.456;2023-07-16T08:44:02;25.20;55.30
70079;DHT22;57451;52.496;13.456;2023-07-16T08:46:29;25.20;56.40
70079;DHT22;57451;52.496;13.456;2023-07-16T08:48:57;25.20;56.70
70079;DHT22;57451;52.496;13.456;2023-07-16T08:51:26;25.30;56.40
70079;DHT22;57451;52.496;13.456;2023-07-16T08:53:54;25.30;56.20
70079;DHT22;57451;52.496;13.456;2023-07-16T08:56:23;25.40;56.60
70079;DHT22;57451;52.496;13.456;2023-07-16T08:58:53;25.50;56.00
70079;DHT22;57451;52.496;13.456;2023-07-16T09:01:22;25.50;53.90
70079;DHT22;57451;52.496;13.456;2023-07-16T09:03:50;25.50;53.60
70079;DHT22;57451;52.496;13.456;2023-07-16T09:06:18;25.60;53.40
70079;DHT22;57451;52.496;13.456;2023-07-16T09:08:45;25.60;53.70
70079;DHT22;57451;52.496;13.456;2023-07-16T09:11:13;25.70;52.50
70079;DHT22;57451;52.496;13.456;2023-07-16T09:13:45;25.70;52.20
70079;DHT22;57451;52.496;13.456;2023-07-16T09:16:12;25.70;52.20
70079;DHT22;57451;52.496;13.456;2023-07-16T09:18:40;25.70;52.10
70079;DHT22;57451;52.496;13.456;2023-07-16T09:21:08;25.70;53.70
70079;DHT22;57451;52.496;13.456;2023-07-16T09:23:36;25.80;54.00
70079;DHT22;57451;52.496;13.456;2023-07-16T09:26:04;25.90;54.20
70079;DHT22;57451;52.496;13.456;2023-07-16T09:28:32;26.00;53.40
70079;DHT22;57451;52.496;13.456;2023-07-16T09:31:05;26.10;53.30
70079;DHT22;57451;52.496;13.456;2023-07-16T09:33:33;26.20;52.80
70079;DHT22;57451;52.496;13.456;2023-07-16T09:36:04;26.30;53.70
70079;DHT22;57451;52.496;13.456;2023-07-16T09:38:33;26.40;52.20
70079;DHT22;57451;52.496;13.456;2023-07-16T09:41:02;26.50;52.50
70079;DHT22;57451;52.496;13.456;2023-07-16T09:43:30;26.60;52.50
70079;DHT22;57451;52.496;13.456;2023-07-16T09:46:00;26.60;51.70
70079;DHT22;57451;52.496;13.456;2023-07-16T09:48:28;26.70;51.30
70079;DHT22;57451;52.496;13.456;2023-07-16T09:50:56;26.70;50.70
70079;DHT22;57451;52.496;13.456;2023-07-16T09:53:24;26.70;51.20
70079;DHT22;57451;52.496;13.456;2023-07-16T09:55:55;26.80;50.70
70079;DHT22;57451;52.496;13.456;2023-07-16T09:58:23;26.90;51.00
70079;DHT22;57451;52.496;13.456;2023-07-16T10:00:52;26.90;50.00
70079;DHT22;57451;52.496;13.456;2023-07-16T10:03:19;27.00;51.00
70079;DHT22;57451;52.496;13.456;2023-07-16T10:05:48;27.00;48.60
70079;DHT22;57451;52.496;13.456;2023-07-16T10:08:20;27.10;49.90
70079;DHT22;57451;52.496;13.456;2023-07-16T10:10:52;27.20;50.10
70079;DHT22;57451;52.496;13.456;2023-07-16T10:13:23;27.30;49.40
70079;DHT22;57451;52.496;13.456;2023-07-16T10:15:51;27.30;48.40
70079;DHT22;57451;52.496;13.456;2023-07-16T10:18:24;27.40;49.00
70079;DHT22;57451;52.496;13.456;2023-07-16T10:20:53;27.40;49.10
70079;DHT22;57451;52.496;13.456;2023-07-16T10:23:21;27.40;48.20
70079;DHT22;57451;52.496;13.456;2023-07-16T10:26:00;27.50;49.20
70079;DHT22;57451;52.496;13.456;2023-07-16T10:28:28;27.50;48.30
70079;DHT22;57451;52.496;13.456;2023-07-16T10:30:56;27.70;48.40
70079;DHT22;57451;52.496;13.456;2023-07-16T10:33:24;27.70;46.70
70079;DHT22;57451;52.496;13.456;2023-07-16T10:35:53;27.60;46.70
70079;DHT22;57451;52.496;13.456;2023-07-16T10:38:20;27.60;47.70
70079;DHT22;57451;52.496;13.456;2023-07-16T10:40:47;27.70;47.90
70079;DHT22;57451;52.496;13.456;2023-07-16T10:43:15;27.70;47.10
70079;DHT22;57451;52.496;13.456;2023-07-16T10:45:42;27.80;47.90
70079;DHT22;57451;52.496;13.456;2023-07-16T10:48:12;27.90;47.90
70079;DHT22;57451;52.496;13.456;2023-07-16T10:50:40;28.00;47.60
70079;DHT22;57451;52.496;13.456;2023-07-16T10:53:08;28.00;47.20
70079;DHT22;57451;52.496;13.456;2023-07-16T10:55:36;28.00;46.00
70079;DHT22;57451;52.496;13.456;2023-07-16T10:58:05;27.90;46.80
70079;DHT22;57451;52.496;13.456;2023-07-16T11:00:38;27.90;47.40
70079;DHT22;57451;52.496;13.456;2023-07-16T11:03:06;27.80;46.90
70079;DHT22;57451;52.496;13.456;2023-07-16T11:05:33;27.80;47.10
70079;DHT22;57451;52.496;13.456;2023-07-16T11:08:01;27.70;47.20
70079;DHT22;57451;52.496;13.456;2023-07-16T11:10:30;27.60;46.60
70079;DHT22;57451;52.496;13.456;2023-07-16T11:12:58;27.60;47.20
70079;DHT22;57451;52.496;13.456;2023-07-16T11:15:32;27.50;47.60
70079;DHT22;57451;52.496;13.456;2023-07-16T11:18:00;27.50;47.50
70079;DHT22;57451;52.496;13.456;2023-07-16T11:20:29;27.50;47.80
70079;DHT22;57451;52.496;13.456;2023-07-16T11:22:58;27.60;48.10
70079;DHT22;57451;52.496;13.456;2023-07-16T11:25:27;27.50;47.80
70079;DHT22;57451;52.496;13.456;2023-07-16T11:27:56;27.60;48.60
70079;DHT22;57451;52.496;13.456;2023-07-16T11:30:24;27.60;46.90
70079;DHT22;57451;52.496;13.456;2023-07-16T11:32:52;27.50;47.90
70079;DHT22;57451;52.496;13.456;2023-07-16T11:35:21;27.60;48.10
70079;DHT22;57451;52.496;13.456;2023-07-16T11:37:48;27.60;47.10
70079;DHT22;57451;52.496;13.456;2023-07-16T11:40:16;27.50;48.70
70079;DHT22;57451;52.496;13.456;2023-07-16T11:42:44;27.50;47.90
70079;DHT22;57451;52.496;13.456;2023-07-16T11:45:17;27.40;47.60
70079;DHT22;57451;52.496;13.456;2023-07-16T11:47:45;27.30;47.90
70079;DHT22;57451;52.496;13.456;2023-07-16T11:50:13;27.30;48.40
70079;DHT22;57451;52.496;13.456;2023-07-16T11:52:41;27.40;49.60
70079;DHT22;57451;52.496;13.456;2023-07-16T11:55:08;27.50;48.00
70079;DHT22;57451;52.496;13.456;2023-07-16T11:57:35;27.50;47.70
70079;DHT22;57451;52.496;13.456;2023-07-16T12:00:04;27.50;45.40
70079;DHT22;57451;52.496;13.456;2023-07-16T12:02:33;27.50;45.00
70079;DHT22;57451;52.496;13.456;2023-07-16T12:05:01;27.50;43.30
70079;DHT22;57451;52.496;13.456;2023-07-16T12:07:33;27.60;44.10
70079;DHT22;57451;52.496;13.456;2023-07-16T12:10:03;27.80;44.80
70079;DHT22;57451;52.496;13.456;2023-07-16T12:12:31;27.90;42.90
70079;DHT22;57451;52.496;13.456;2023-07-16T12:14:59;28.00;42.50
70079;DHT22;57451;52.496;13.456;2023-07-16T12:17:26;28.10;37.90
70079;DHT22;57451;52.496;13.456;2023-07-16T12:19:56;28.10;37.70
70079;DHT22;57451;52.496;13.456;2023-07-16T12:22:23;28.10;36.40
70079;DHT22;57451;52.496;13.456;2023-07-16T12:24:51;28.20;37.40
70079;DHT22;57451;52.496;13.456;2023-07-16T12:27:18;28.20;38.10
70079;DHT22;57451;52.496;13.456;2023-07-16T12:29:47;28.20;38.70
70079;DHT22;57451;52.496;13.456;2023-07-16T12:32:15;28.30;37.00
70079;DHT22;57451;52.496;13.456;2023-07-16T12:34:43;28.30;38.30
70079;DHT22;57451;52.496;13.456;2023-07-16T12:37:14;28.30;36.20
70079;DHT22;57451;52.496;13.456;2023-07-16T12:39:42;28.30;37.40
70079;DHT22;57451;52.496;13.456;2023-07-16T12:42:12;28.40;37.90
70079;DHT22;57451;52.496;13.456;2023-07-16T12:44:39;28.40;38.30
70079;DHT22;57451;52.496;13.456;2023-07-16T12:47:07;28.40;38.70
70079;DHT22;57451;52.496;13.456;2023-07-16T12:49:38;28.50;39.40
70079;DHT22;57451;52.496;13.456;2023-07-16T12:52:06;28.50;38.50
70079;DHT22;57451;52.496;13.456;2023-07-16T12:54:34;28.60;38.60
70079;DHT22;57451;52.496;13.456;2023-07-16T12:57:02;28.70;37.80
70079;DHT22;57451;52.496;13.456;2023-07-16T12:59:30;28.70;37.20
70079;DHT22;57451;52.496;13.456;2023-07-16T13:01:57;28.80;38.70
70079;DHT22;57451;52.496;13.456;2023-07-16T13:04:25;28.90;36.20
70079;DHT22;57451;52.496;13.456;2023-07-16T13:06:52;29.00;36.60
70079;DHT22;57451;52.496;13.456;2023-07-16T13:09:20;29.00;36.30
70079;DHT22;57451;52.496;13.456;2023-07-16T13:11:48;29.10;36.60
70079;DHT22;57451;52.496;13.456;2023-07-16T13:14:17;29.10;37.40
70079;DHT22;57451;52.496;13.456;2023-07-16T13:16:44;29.10;37.50
70079;DHT22;57451;52.496;13.456;2023-07-16T13:19:11;29.20;37.60
70079;DHT22;57451;52.496;13.456;2023-07-16T13:21:39;29.30;36.40
70079;DHT22;57451;52.496;13.456;2023-07-16T13:24:06;29.30;36.00
70079;DHT22;57451;52.496;13.456;2023-07-16T13:26:33;29.30;37.20
70079;DHT22;57451;52.496;13.456;2023-07-16T13:29:02;29.30;37.50
70079;DHT22;57451;52.496;13.456;2023-07-16T13:31:29;29.40;36.80
70079;DHT22;57451;52.496;13.456;2023-07-16T13:33:57;29.40;36.00
70079;DHT22;57451;52.496;13.456;2023-07-16T13:36:24;29.40;36.10
70079;DHT22;57451;52.496;13.456;2023-07-16T13:38:51;29.40;36.40
70079;DHT22;57451;52.496;13.456;2023-07-16T13:41:19;29.50;35.10
70079;DHT22;57451;52.496;13.456;2023-07-16T13:43:46;29.30;36.30
70079;DHT22;57451;52.496;13.456;2023-07-16T13:46:15;29.30;36.10
70079;DHT22;57451;52.496;13.456;2023-07-16T13:48:43;29.30;36.30
70079;DHT22;57451;52.496;13.456;2023-07-16T13:51:24;29.40;36.80
70079;DHT22;57451;52.496;13.456;2023-07-16T13:53:51;29.50;36.60
70079;DHT22;57451;52.496;13.456;2023-07-16T13:56:18;29.50;36.90
70079;DHT22;57451;52.496;13.456;2023-07-16T13:58:46;29.40;35.80
70079;DHT22;57451;52.496;13.456;2023-07-16T14:01:16;29.40;36.60
70079;DHT22;57451;52.496;13.456;2023-07-16T14:03:44;29.40;37.20
70079;DHT22;57451;52.496;13.456;2023-07-16T14:06:11;29.40;36.60
70079;DHT22;57451;52.496;13.456;2023-07-16T14:08:38;29.30;34.30
70079;DHT22;57451;52.496;13.456;2023-07-16T14:11:06;29.20;35.40
70079;DHT22;57451;52.496;13.456;2023-07-16T14:13:33;29.10;35.10
70079;DHT22;57451;52.496;13.456;2023-07-16T14:16:00;29.20;36.00
70079;DHT22;57451;52.496;13.456;2023-07-16T14:18:29;29.20;35.50
70079;DHT22;57451;52.496;13.456;2023-07-16T14:20:57;29.20;36.60
70079;DHT22;57451;52.496;13.456;2023-07-16T14:23:24;29.20;35.30
70079;DHT22;57451;52.496;13.456;2023-07-16T14:25:51;29.20;35.00
70079;DHT22;57451;52.496;13.456;2023-07-16T14:28:19;29.20;35.40
70079;DHT22;57451;52.496;13.456;2023-07-16T14:30:46;29.00;33.90
70079;DHT22;57451;52.496;13.456;2023-07-16T14:33:13;28.80;34.40
70079;DHT22;57451;52.496;13.456;2023-07-16T14:35:42;28.60;35.20
70079;DHT22;57451;52.496;13.456;2023-07-16T14:38:09;28.70;34.90
70079;DHT22;57451;52.496;13.456;2023-07-16T14:40:37;28.70;36.10
70079;DHT22;57451;52.496;13.456;2023-07-16T14:43:04;28.60;35.70
70079;DHT22;57451;52.496;13.456;2023-07-16T14:45:32;28.60;35.20
70079;DHT22;57451;52.496;13.456;2023-07-16T14:48:00;28.70;34.70
70079;DHT22;57451;52.496;13.456;2023-07-16T14:50:28;28.80;34.40
70079;DHT22;57451;52.496;13.456;2023-07-16T14:52:56;28.80;35.90
70079;DHT22;57451;52.496;13.456;2023-07-16T14:55:24;28.90;35.40
70079;DHT22;57451;52.496;13.456;2023-07-16T14:57:51;29.00;34.90
70079;DHT22;57451;52.496;13.456;2023-07-16T15:00:18;28.90;34.80
70079;DHT22;57451;52.496;13.456;2023-07-16T15:02:46;28.90;34.10
70079;DHT22;57451;52.496;13.456;2023-07-16T15:05:13;28.70;34.00
70079;DHT22;57451;52.496;13.456;2023-07-16T15:07:40;28.70;34.50
70079;DHT22;57451;52.496;13.456;2023-07-16T15:10:10;28.70;35.50
70079;DHT22;57451;52.496;13.456;2023-07-16T15:12:37;28.70;34.40
70079;DHT22;57451;52.496;13.456;2023-07-16T15:15:06;28.70;34.10
70079;DHT22;57451;52.496;13.456;2023-07-16T15:17:33;28.60;33.80
70079;DHT22;57451;52.496;13.456;2023-07-16T15:20:00;28.60;33.90
70079;DHT22;57451;52.496;13.456;2023-07-16T15:22:28;28.40;34.10